sensor_id;sensor_type;location;lat;lon;timestamp;temperature;humidity
3298;DHT22;1661;53.572;10.174;2023-04-24T00:01:53;13.50;85.50
3298;DHT22;1661;53.572;10.174;2023-04-24T00:04:21;13.50;85.90
3298;DHT22;1661;53.572;10.174;2023-04-24T00:06:51;13.50;86.10
3298;DHT22;1661;53.572;10.174;2023-04-24T00:09:19;13.60;85.90
3298;DHT22;1661;53.572;10.174;2023-04-24T00:11:46;13.50;86.00
3298;DHT22;1661;53.572;10.174;2023-04-24T00:14:15;13.40;86.10
3298;DHT22;1661;53.572;10.174;2023-04-24T00:16:44;13.50;86.00
3298;DHT22;1661;53.572;10.174;2023-04-24T00:19:14;13.50;85.60
3298;DHT22;1661;53.572;10.174;2023-04-24T00:21:41;13.50;85.40
3298;DHT22;1661;53.572;10.174;2023-04-24T00:24:08;13.50;85.60
3298;DHT22;1661;53.572;10.174;2023-04-24T00:26:38;13.40;85.90
3298;DHT22;1661;53.572;10.174;2023-04-24T00:29:05;13.30;86.10
3298;DHT22;1661;53.572;10.174;2023-04-24T00:31:36;13.40;85.90
3298;DHT22;1661;53.572;10.174;2023-04-24T00:34:02;13.40;85.80
3298;DHT22;1661;53.572;10.174;2023-04-24T00:36:33;13.40;85.30
3298;DHT22;1661;53.572;10.174;2023-04-24T00:39:00;13.40;85.70
3298;DHT22;1661;53.572;10.174;2023-04-24T00:41:27;13.30;85.90
3298;DHT22;1661;53.572;10.174;2023-04-24T00:43:54;13.30;86.10
3298;DHT22;1661;53.572;10.174;2023-04-24T00:46:21;13.30;86.10
3298;DHT22;1661;53.572;10.174;2023-04-24T00:48:50;13.30;86.00
3298;DHT22;1661;53.572;10.174;2023-04-24T00:51:20;13.30;86.00
3298;DHT22;1661;53.572;10.174;2023-04-24T00:53:47;13.30;86.20
3298;DHT22;1661;53.572;10.174;2023-04-24T00:56:16;13.20;86.20
3298;DHT22;1661;53.572;10.174;2023-04-24T00:58:44;13.20;86.30
3298;DHT22;1661;53.572;10.174;2023-04-24T01:01:11;13.10;86.40
3298;DHT22;1661;53.572;10.174;2023-04-24T01:03:40;13.00;86.80
3298;DHT22;1661;53.572;10.174;2023-04-24T01:06:09;13.00;87.00
3298;DHT22;1661;53.572;10.174;2023-04-24T01:08:37;13.10;87.20
3298;DHT22;1661;53.572;10.174;2023-04-24T01:11:05;13.10;87.20
3298;DHT22;1661;53.572;10.174;2023-04-24T01:13:32;13.10;86.90
3298;DHT22;1661;53.572;10.174;2023-04-24T01:15:59;13.10;87.00
3298;DHT22;1661;53.572;10.174;2023-04-24T01:18:29;13.20;86.80
3298;DHT22;1661;53.572;10.174;2023-04-24T01:20:58;13.10;87.00
3298;DHT22;1661;53.572;10.174;2023-04-24T01:23:26;13.10;87.00
3298;DHT22;1661;53.572;10.174;2023-04-24T01:25:54;13.10;86.80
3298;DHT22;1661;53.572;10.174;2023-04-24T01:28:21;13.20;86.60
3298;DHT22;1661;53.572;10.174;2023-04-24T01:30:48;13.10;86.40
3298;DHT22;1661;53.572;10.174;2023-04-24T01:33:15;13.10;86.40
3298;DHT22;1661;53.572;10.174;2023-04-24T01:35:42;13.00;86.60
3298;DHT22;1661;53.572;10.174;2023-04-24T01:38:09;12.90;86.60
3298;DHT22;1661;53.572;10.174;2023-04-24T01:40:37;12.90;86.80
3298;DHT22;1661;53.572;10.174;2023-04-24T01:43:05;12.90;86.60
3298;DHT22;1661;53.572;10.174;2023-04-24T01:45:31;12.90;86.60
3298;DHT22;1661;53.572;10.174;2023-04-24T01:47:58;12.90;86.30
3298;DHT22;1661;53.572;10.174;2023-04-24T01:50:26;12.90;86.10
3298;DHT22;1661;53.572;10.174;2023-04-24T01:52:53;12.90;86.10
3298;DHT22;1661;53.572;10.174;2023-04-24T01:55:20;12.90;85.90
3298;DHT22;1661;53.572;10.174;2023-04-24T01:57:49;12.90;85.80
3298;DHT22;1661;53.572;10.174;2023-04-24T02:00:16;13.00;85.50
3298;DHT22;1661;53.572;10.174;2023-04-24T02:02:43;13.00;85.40
3298;DHT22;1661;53.572;10.174;2023-04-24T02:05:13;13.00;85.40
3298;DHT22;1661;53.572;10.174;2023-04-24T02:07:40;12.90;85.10
3298;DHT22;1661;53.572;10.174;2023-04-24T02:10:08;13.00;84.90
3298;DHT22;1661;53.572;10.174;2023-04-24T02:12:37;13.00;84.80
3298;DHT22;1661;53.572;10.174;2023-04-24T02:15:06;13.00;84.60
3298;DHT22;1661;53.572;10.174;2023-04-24T02:17:33;13.00;84.60
3298;DHT22;1661;53.572;10.174;2023-04-24T02:20:02;13.00;84.50
3298;DHT22;1661;53.572;10.174;2023-04-24T02:22:30;13.00;84.50
3298;DHT22;1661;53.572;10.174;2023-04-24T02:24:56;13.00;84.10
3298;DHT22;1661;53.572;10.174;2023-04-24T02:27:23;13.00;83.80
3298;DHT22;1661;53.572;10.174;2023-04-24T02:29:50;13.00;83.90
3298;DHT22;1661;53.572;10.174;2023-04-24T02:32:18;13.00;84.00
3298;DHT22;1661;53.572;10.174;2023-04-24T02:34:45;12.90;84.20
3298;DHT22;1661;53.572;10.174;2023-04-24T02:37:12;12.90;84.00
3298;DHT22;1661;53.572;10.174;2023-04-24T02:39:38;12.90;84.30
3298;DHT22;1661;53.572;10.174;2023-04-24T02:42:05;12.80;84.30
3298;DHT22;1661;53.572;10.174;2023-04-24T02:44:33;12.70;84.50
3298;DHT22;1661;53.572;10.174;2023-04-24T02:47:00;12.60;84.80
3298;DHT22;1661;53.572;10.174;2023-04-24T02:49:31;12.60;85.10
3298;DHT22;1661;53.572;10.174;2023-04-24T02:51:58;12.60;84.40
3298;DHT22;1661;53.572;10.174;2023-04-24T02:54:24;12.60;84.30
3298;DHT22;1661;53.572;10.174;2023-04-24T02:56:51;12.60;84.20
3298;DHT22;1661;53.572;10.174;2023-04-24T02:59:18;12.60;84.30
3298;DHT22;1661;53.572;10.174;2023-04-24T03:01:45;12.50;84.60
3298;DHT22;1661;53.572;10.174;2023-04-24T03:04:11;12.40;84.70
3298;DHT22;1661;53.572;10.174;2023-04-24T03:06:39;12.40;84.50
3298;DHT22;1661;53.572;10.174;2023-04-24T03:09:06;12.30;84.60
3298;DHT22;1661;53.572;10.174;2023-04-24T03:11:33;12.30;84.60
3298;DHT22;1661;53.572;10.174;2023-04-24T03:14:00;12.30;84.40
3298;DHT22;1661;53.572;10.174;2023-04-24T03:16:27;12.30;84.20
3298;DHT22;1661;53.572;10.174;2023-04-24T03:18:53;12.30;84.10
3298;DHT22;1661;53.572;10.174;2023-04-24T03:21:20;12.30;83.90
3298;DHT22;1661;53.572;10.174;2023-04-24T03:23:48;12.20;83.80
3298;DHT22;1661;53.572;10.174;2023-04-24T03:26:15;12.30;83.40
3298;DHT22;1661;53.572;10.174;2023-04-24T03:28:45;12.20;83.30
3298;DHT22;1661;53.572;10.174;2023-04-24T03:31:14;12.10;83.30
3298;DHT22;1661;53.572;10.174;2023-04-24T03:33:42;12.20;83.40
3298;DHT22;1661;53.572;10.174;2023-04-24T03:36:09;12.20;83.20
3298;DHT22;1661;53.572;10.174;2023-04-24T03:38:35;12.20;83.00
3298;DHT22;1661;53.572;10.174;2023-04-24T03:41:03;12.20;82.70
3298;DHT22;1661;53.572;10.174;2023-04-24T03:43:30;12.20;82.80
3298;DHT22;1661;53.572;10.174;2023-04-24T03:45:58;12.10;82.80
3298;DHT22;1661;53.572;10.174;2023-04-24T03:48:25;12.10;82.70
3298;DHT22;1661;53.572;10.174;2023-04-24T03:50:52;12.00;82.60
3298;DHT22;1661;53.572;10.174;2023-04-24T03:53:19;12.00;82.50
3298;DHT22;1661;53.572;10.174;2023-04-24T03:55:46;12.00;82.50
3298;DHT22;1661;53.572;10.174;2023-04-24T03:58:17;12.00;82.60
3298;DHT22;1661;53.572;10.174;2023-04-24T04:00:44;11.90;82.70
3298;DHT22;1661;53.572;10.174;2023-04-24T04:03:12;11.90;82.50
3298;DHT22;1661;53.572;10.174;2023-04-24T04:05:39;12.00;82.10
3298;DHT22;1661;53.572;10.174;2023-04-24T04:08:06;11.90;82.00
3298;DHT22;1661;53.572;10.174;2023-04-24T04:10:32;11.90;82.10
3298;DHT22;1661;53.572;10.174;2023-04-24T04:12:59;11.90;82.20
3298;DHT22;1661;53.572;10.174;2023-04-24T04:15:27;11.90;82.10
3298;DHT22;1661;53.572;10.174;2023-04-24T04:17:54;11.90;81.70
3298;DHT22;1661;53.572;10.174;2023-04-24T04:20:24;11.80;81.60
3298;DHT22;1661;53.572;10.174;2023-04-24T04:22:50;11.80;81.40
3298;DHT22;1661;53.572;10.174;2023-04-24T04:25:17;11.80;81.30
3298;DHT22;1661;53.572;10.174;2023-04-24T04:27:51;11.80;81.00
3298;DHT22;1661;53.572;10.174;2023-04-24T04:30:20;11.90;80.70
3298;DHT22;1661;53.572;10.174;2023-04-24T04:32:48;11.90;80.30
3298;DHT22;1661;53.572;10.174;2023-04-24T04:35:15;11.80;80.00
3298;DHT22;1661;53.572;10.174;2023-04-24T04:37:47;11.80;80.10
3298;DHT22;1661;53.572;10.174;2023-04-24T04:40:14;11.80;80.00
3298;DHT22;1661;53.572;10.174;2023-04-24T04:42:41;11.80;79.60
3298;DHT22;1661;53.572;10.174;2023-04-24T04:45:11;11.80;79.60
3298;DHT22;1661;53.572;10.174;2023-04-24T04:47:38;11.80;79.30
3298;DHT22;1661;53.572;10.174;2023-04-24T04:50:10;11.70;79.50
3298;DHT22;1661;53.572;10.174;2023-04-24T04:52:37;11.70;79.50
3298;DHT22;1661;53.572;10.174;2023-04-24T04:55:04;11.60;79.60
3298;DHT22;1661;53.572;10.174;2023-04-24T04:57:31;11.70;79.50
3298;DHT22;1661;53.572;10.174;2023-04-24T04:59:58;11.70;79.40
3298;DHT22;1661;53.572;10.174;2023-04-24T05:02:25;11.70;79.30
3298;DHT22;1661;53.572;10.174;2023-04-24T05:04:52;11.70;79.20
3298;DHT22;1661;53.572;10.174;2023-04-24T05:07:23;11.70;79.20
3298;DHT22;1661;53.572;10.174;2023-04-24T05:09:50;11.70;79.10
3298;DHT22;1661;53.572;10.174;2023-04-24T05:12:17;11.70;79.10
3298;DHT22;1661;53.572;10.174;2023-04-24T05:14:44;11.70;79.10
3298;DHT22;1661;53.572;10.174;2023-04-24T05:17:11;11.70;78.90
3298;DHT22;1661;53.572;10.174;2023-04-24T05:19:38;11.80;78.80
3298;DHT22;1661;53.572;10.174;2023-04-24T05:22:07;11.90;78.40
3298;DHT22;1661;53.572;10.174;2023-04-24T05:24:39;11.90;78.40
3298;DHT22;1661;53.572;10.174;2023-04-24T05:27:06;11.80;78.70
3298;DHT22;1661;53.572;10.174;2023-04-24T05:29:32;11.90;78.50
3298;DHT22;1661;53.572;10.174;2023-04-24T05:32:02;12.00;78.20
3298;DHT22;1661;53.572;10.174;2023-04-24T05:34:29;12.00;78.10
3298;DHT22;1661;53.572;10.174;2023-04-24T05:36:56;12.00;77.80
3298;DHT22;1661;53.572;10.174;2023-04-24T05:39:23;12.10;77.80
3298;DHT22;1661;53.572;10.174;2023-04-24T05:41:51;12.10;77.80
3298;DHT22;1661;53.572;10.174;2023-04-24T05:44:18;12.10;77.60
3298;DHT22;1661;53.572;10.174;2023-04-24T05:46:45;12.20;77.60
3298;DHT22;1661;53.572;10.174;2023-04-24T05:49:12;12.20;77.20
3298;DHT22;1661;53.572;10.174;2023-04-24T05:51:38;12.30;77.20
3298;DHT22;1661;53.572;10.174;2023-04-24T05:54:05;12.40;76.20
3298;DHT22;1661;53.572;10.174;2023-04-24T05:56:32;12.50;76.20
3298;DHT22;1661;53.572;10.174;2023-04-24T05:59:00;12.50;76.40
3298;DHT22;1661;53.572;10.174;2023-04-24T06:01:27;12.60;76.10
3298;DHT22;1661;53.572;10.174;2023-04-24T06:03:54;12.60;75.60
3298;DHT22;1661;53.572;10.174;2023-04-24T06:06:20;12.70;75.40
3298;DHT22;1661;53.572;10.174;2023-04-24T06:08:47;12.80;74.90
3298;DHT22;1661;53.572;10.174;2023-04-24T06:11:17;12.90;74.70
3298;DHT22;1661;53.572;10.174;2023-04-24T06:13:46;13.00;75.00
3298;DHT22;1661;53.572;10.174;2023-04-24T06:16:16;13.10;73.70
3298;DHT22;1661;53.572;10.174;2023-04-24T06:18:45;13.20;73.60
3298;DHT22;1661;53.572;10.174;2023-04-24T06:21:13;13.30;73.40
3298;DHT22;1661;53.572;10.174;2023-04-24T06:23:42;13.50;72.80
3298;DHT22;1661;53.572;10.174;2023-04-24T06:26:12;13.50;71.50
3298;DHT22;1661;53.572;10.174;2023-04-24T06:28:38;13.60;72.10
3298;DHT22;1661;53.572;10.174;2023-04-24T06:31:08;13.70;71.80
3298;DHT22;1661;53.572;10.174;2023-04-24T06:33:36;13.80;71.30
3298;DHT22;1661;53.572;10.174;2023-04-24T06:36:03;14.00;70.50
3298;DHT22;1661;53.572;10.174;2023-04-24T06:38:30;14.10;70.10
3298;DHT22;1661;53.572;10.174;2023-04-24T06:40:57;14.20;69.90
3298;DHT22;1661;53.572;10.174;2023-04-24T06:43:24;14.20;69.90
3298;DHT22;1661;53.572;10.174;2023-04-24T06:45:50;14.30;69.90
3298;DHT22;1661;53.572;10.174;2023-04-24T06:48:20;14.40;69.50
3298;DHT22;1661;53.572;10.174;2023-04-24T06:50:48;14.30;69.10
3298;DHT22;1661;53.572;10.174;2023-04-24T06:53:15;14.50;69.00
3298;DHT22;1661;53.572;10.174;2023-04-24T06:55:42;14.50;68.50
3298;DHT22;1661;53.572;10.174;2023-04-24T06:58:10;14.60;67.80
3298;DHT22;1661;53.572;10.174;2023-04-24T07:00:37;14.60;68.10
3298;DHT22;1661;53.572;10.174;2023-04-24T07:03:04;14.70;68.40
3298;DHT22;1661;53.572;10.174;2023-04-24T07:05:31;14.80;67.70
3298;DHT22;1661;53.572;10.174;2023-04-24T07:08:00;14.90;67.10
3298;DHT22;1661;53.572;10.174;2023-04-24T07:10:27;14.90;67.00
3298;DHT22;1661;53.572;10.174;2023-04-24T07:12:57;14.90;66.80
3298;DHT22;1661;53.572;10.174;2023-04-24T07:15:24;15.00;66.20
3298;DHT22;1661;53.572;10.174;2023-04-24T07:17:50;15.00;65.90
3298;DHT22;1661;53.572;10.174;2023-04-24T07:20:17;15.10;66.40
3298;DHT22;1661;53.572;10.174;2023-04-24T07:22:46;15.30;66.80
3298;DHT22;1661;53.572;10.174;2023-04-24T07:25:17;15.40;65.50
3298;DHT22;1661;53.572;10.174;2023-04-24T07:27:43;15.30;64.90
3298;DHT22;1661;53.572;10.174;2023-04-24T07:30:11;15.30;64.90
3298;DHT22;1661;53.572;10.174;2023-04-24T07:32:38;15.30;65.20
3298;DHT22;1661;53.572;10.174;2023-04-24T07:35:05;15.30;65.10
3298;DHT22;1661;53.572;10.174;2023-04-24T07:37:32;15.40;63.90
3298;DHT22;1661;53.572;10.174;2023-04-24T07:39:59;15.40;64.80
3298;DHT22;1661;53.572;10.174;2023-04-24T07:42:30;15.50;64.90
3298;DHT22;1661;53.572;10.174;2023-04-24T07:44:59;15.70;65.10
3298;DHT22;1661;53.572;10.174;2023-04-24T07:47:26;16.00;64.60
3298;DHT22;1661;53.572;10.174;2023-04-24T07:49:53;16.10;63.10
3298;DHT22;1661;53.572;10.174;2023-04-24T07:52:20;16.00;62.60
3298;DHT22;1661;53.572;10.174;2023-04-24T07:54:47;16.10;62.90
3298;DHT22;1661;53.572;10.174;2023-04-24T07:57:15;16.10;62.30
3298;DHT22;1661;53.572;10.174;2023-04-24T07:59:43;16.20;62.50
3298;DHT22;1661;53.572;10.174;2023-04-24T08:02:10;16.30;62.10
3298;DHT22;1661;53.572;10.174;2023-04-24T08:04:37;16.40;62.00
3298;DHT22;1661;53.572;10.174;2023-04-24T08:07:04;16.30;62.00
3298;DHT22;1661;53.572;10.174;2023-04-24T08:09:30;16.30;62.00
3298;DHT22;1661;53.572;10.174;2023-04-24T08:11:57;16.30;61.50
3298;DHT22;1661;53.572;10.174;2023-04-24T08:14:24;16.40;61.80
3298;DHT22;1661;53.572;10.174;2023-04-24T08:16:53;16.50;62.00
3298;DHT22;1661;53.572;10.174;2023-04-24T08:19:20;16.40;61.50
3298;DHT22;1661;53.572;10.174;2023-04-24T08:21:46;16.30;61.40
3298;DHT22;1661;53.572;10.174;2023-04-24T08:24:13;16.20;61.60
3298;DHT22;1661;53.572;10.174;2023-04-24T08:26:40;16.20;62.50
3298;DHT22;1661;53.572;10.174;2023-04-24T08:29:10;16.20;62.60
3298;DHT22;1661;53.572;10.174;2023-04-24T08:31:37;16.20;62.30
3298;DHT22;1661;53.572;10.174;2023-04-24T08:34:06;16.20;62.30
3298;DHT22;1661;53.572;10.174;2023-04-24T08:36:33;16.10;61.90
3298;DHT22;1661;53.572;10.174;2023-04-24T08:39:00;15.90;61.80
3298;DHT22;1661;53.572;10.174;2023-04-24T08:41:27;15.90;62.80
3298;DHT22;1661;53.572;10.174;2023-04-24T08:43:55;15.70;62.40
3298;DHT22;1661;53.572;10.174;2023-04-24T08:46:24;15.70;63.30
3298;DHT22;1661;53.572;10.174;2023-04-24T08:48:52;15.70;63.60
3298;DHT22;1661;53.572;10.174;2023-04-24T08:51:20;15.60;63.60
3298;DHT22;1661;53.572;10.174;2023-04-24T08:53:48;15.70;64.20
3298;DHT22;1661;53.572;10.174;2023-04-24T08:56:14;15.80;63.80
3298;DHT22;1661;53.572;10.174;2023-04-24T08:58:43;15.90;63.80
3298;DHT22;1661;53.572;10.174;2023-04-24T09:01:11;15.90;63.20
3298;DHT22;1661;53.572;10.174;2023-04-24T09:03:38;15.90;63.30
3298;DHT22;1661;53.572;10.174;2023-04-24T09:06:08;15.90;63.00
3298;DHT22;1661;53.572;10.174;2023-04-24T09:08:41;15.80;62.80
3298;DHT22;1661;53.572;10.174;2023-04-24T09:11:09;15.90;62.90
3298;DHT22;1661;53.572;10.174;2023-04-24T09:13:36;16.10;62.50
3298;DHT22;1661;53.572;10.174;2023-04-24T09:16:06;16.00;61.00
3298;DHT22;1661;53.572;10.174;2023-04-24T09:18:33;15.90;60.90
3298;DHT22;1661;53.572;10.174;2023-04-24T09:21:02;16.00;61.90
3298;DHT22;1661;53.572;10.174;2023-04-24T09:23:30;16.00;60.50
3298;DHT22;1661;53.572;10.174;2023-04-24T09:25:59;15.90;60.30
3298;DHT22;1661;53.572;10.174;2023-04-24T09:28:30;15.90;60.40
3298;DHT22;1661;53.572;10.174;2023-04-24T09:31:05;16.00;61.10
3298;DHT22;1661;53.572;10.174;2023-04-24T09:33:32;15.90;62.40
3298;DHT22;1661;53.572;10.174;2023-04-24T09:35:59;15.90;62.60
3298;DHT22;1661;53.572;10.174;2023-04-24T09:38:33;15.90;62.10
3298;DHT22;1661;53.572;10.174;2023-04-24T09:41:03;15.80;61.40
3298;DHT22;1661;53.572;10.174;2023-04-24T09:43:31;15.70;62.00
3298;DHT22;1661;53.572;10.174;2023-04-24T09:45:59;15.50;62.30
3298;DHT22;1661;53.572;10.174;2023-04-24T09:48:33;15.40;63.30
3298;DHT22;1661;53.572;10.174;2023-04-24T09:51:00;15.30;63.60
3298;DHT22;1661;53.572;10.174;2023-04-24T09:53:29;15.10;63.20
3298;DHT22;1661;53.572;10.174;2023-04-24T09:55:58;15.10;63.80
3298;DHT22;1661;53.572;10.174;2023-04-24T09:58:29;15.10;63.40
3298;DHT22;1661;53.572;10.174;2023-04-24T10:00:56;15.10;63.80
3298;DHT22;1661;53.572;10.174;2023-04-24T10:03:24;15.20;64.00
3298;DHT22;1661;53.572;10.174;2023-04-24T10:05:52;15.30;63.20
3298;DHT22;1661;53.572;10.174;2023-04-24T10:08:21;15.30;63.10
3298;DHT22;1661;53.572;10.174;2023-04-24T10:10:54;15.50;62.90
3298;DHT22;1661;53.572;10.174;2023-04-24T10:13:23;15.60;63.90
3298;DHT22;1661;53.572;10.174;2023-04-24T10:15:51;15.70;63.00
3298;DHT22;1661;53.572;10.174;2023-04-24T10:18:20;15.90;62.10
3298;DHT22;1661;53.572;10.174;2023-04-24T10:20:50;16.20;62.20
3298;DHT22;1661;53.572;10.174;2023-04-24T10:23:17;16.50;60.70
3298;DHT22;1661;53.572;10.174;2023-04-24T10:25:45;16.60;60.50
3298;DHT22;1661;53.572;10.174;2023-04-24T10:28:13;16.60;60.50
3298;DHT22;1661;53.572;10.174;2023-04-24T10:30:43;16.50;62.30
3298;DHT22;1661;53.572;10.174;2023-04-24T10:33:11;16.60;60.30
3298;DHT22;1661;53.572;10.174;2023-04-24T10:35:41;16.50;60.80
3298;DHT22;1661;53.572;10.174;2023-04-24T10:38:12;16.40;60.40
3298;DHT22;1661;53.572;10.174;2023-04-24T10:40:48;16.30;61.60
3298;DHT22;1661;53.572;10.174;2023-04-24T10:43:17;16.30;61.10
3298;DHT22;1661;53.572;10.174;2023-04-24T10:46:00;16.20;61.10
3298;DHT22;1661;53.572;10.174;2023-04-24T10:48:29;16.10;63.30
3298;DHT22;1661;53.572;10.174;2023-04-24T10:50:56;16.00;61.70
3298;DHT22;1661;53.572;10.174;2023-04-24T10:53:23;15.90;63.00
3298;DHT22;1661;53.572;10.174;2023-04-24T10:55:58;15.80;62.30
3298;DHT22;1661;53.572;10.174;2023-04-24T10:58:37;15.60;62.90
3298;DHT22;1661;53.572;10.174;2023-04-24T11:01:06;15.50;62.50
3298;DHT22;1661;53.572;10.174;2023-04-24T11:03:37;15.40;63.30
3298;DHT22;1661;53.572;10.174;2023-04-24T11:06:08;15.50;63.60
3298;DHT22;1661;53.572;10.174;2023-04-24T11:08:40;15.60;63.30
3298;DHT22;1661;53.572;10.174;2023-04-24T11:11:10;15.60;62.80
3298;DHT22;1661;53.572;10.174;2023-04-24T11:14:05;15.70;63.40
3298;DHT22;1661;53.572;10.174;2023-04-24T11:16:40;16.00;64.00
3298;DHT22;1661;53.572;10.174;2023-04-24T11:19:11;16.00;60.90
3298;DHT22;1661;53.572;10.174;2023-04-24T11:21:45;15.90;60.80
3298;DHT22;1661;53.572;10.174;2023-04-24T11:24:25;15.80;61.70
3298;DHT22;1661;53.572;10.174;2023-04-24T11:26:54;15.80;61.80
3298;DHT22;1661;53.572;10.174;2023-04-24T11:29:22;16.00;62.10
3298;DHT22;1661;53.572;10.174;2023-04-24T11:31:49;16.30;60.10
3298;DHT22;1661;53.572;10.174;2023-04-24T11:34:18;16.70;59.50
3298;DHT22;1661;53.572;10.174;2023-04-24T11:36:46;17.00;58.10
3298;DHT22;1661;53.572;10.174;2023-04-24T11:39:13;17.20;56.40
3298;DHT22;1661;53.572;10.174;2023-04-24T11:41:40;17.20;55.90
3298;DHT22;1661;53.572;10.174;2023-04-24T11:44:09;17.00;56.30
3298;DHT22;1661;53.572;10.174;2023-04-24T11:46:36;16.70;57.20
3298;DHT22;1661;53.572;10.174;2023-04-24T11:49:05;16.60;57.80
3298;DHT22;1661;53.572;10.174;2023-04-24T11:51:34;16.50;57.90
3298;DHT22;1661;53.572;10.174;2023-04-24T11:54:01;16.50;58.30
3298;DHT22;1661;53.572;10.174;2023-04-24T11:56:28;16.40;59.70
3298;DHT22;1661;53.572;10.174;2023-04-24T11:59:00;16.40;58.80
3298;DHT22;1661;53.572;10.174;2023-04-24T12:01:42;16.50;58.20
3298;DHT22;1661;53.572;10.174;2023-04-24T12:04:09;16.50;58.30
3298;DHT22;1661;53.572;10.174;2023-04-24T12:06:37;16.40;57.90
3298;DHT22;1661;53.572;10.174;2023-04-24T12:09:04;16.50;58.50
3298;DHT22;1661;53.572;10.174;2023-04-24T12:11:32;16.40;57.00
3298;DHT22;1661;53.572;10.174;2023-04-24T12:14:10;16.30;56.80
3298;DHT22;1661;53.572;10.174;2023-04-24T12:16:38;16.40;57.50
3298;DHT22;1661;53.572;10.174;2023-04-24T12:19:05;16.50;57.40
3298;DHT22;1661;53.572;10.174;2023-04-24T12:21:31;16.50;56.80
3298;DHT22;1661;53.572;10.174;2023-04-24T12:23:59;16.60;56.60
3298;DHT22;1661;53.572;10.174;2023-04-24T12:26:27;16.70;57.30
3298;DHT22;1661;53.572;10.174;2023-04-24T12:28:54;16.70;57.30
3298;DHT22;1661;53.572;10.174;2023-04-24T12:31:21;16.80;56.70
3298;DHT22;1661;53.572;10.174;2023-04-24T12:33:52;16.90;57.30
3298;DHT22;1661;53.572;10.174;2023-04-24T12:36:21;16.90;56.30
3298;DHT22;1661;53.572;10.174;2023-04-24T12:38:53;16.80;55.70
3298;DHT22;1661;53.572;10.174;2023-04-24T12:41:24;16.70;55.40
3298;DHT22;1661;53.572;10.174;2023-04-24T12:43:51;16.70;55.70
3298;DHT22;1661;53.572;10.174;2023-04-24T12:46:18;16.70;56.20
3298;DHT22;1661;53.572;10.174;2023-04-24T12:48:48;16.80;56.80
3298;DHT22;1661;53.572;10.174;2023-04-24T12:51:15;16.70;59.60
3298;DHT22;1661;53.572;10.174;2023-04-24T12:53:41;16.60;57.90
3298;DHT22;1661;53.572;10.174;2023-04-24T12:56:08;16.50;56.70
3298;DHT22;1661;53.572;10.174;2023-04-24T12:58:37;16.40;58.20
3298;DHT22;1661;53.572;10.174;2023-04-24T13:01:03;16.20;58.20
3298;DHT22;1661;53.572;10.174;2023-04-24T13:03:30;16.00;58.60
3298;DHT22;1661;53.572;10.174;2023-04-24T13:05:57;15.90;59.60
3298;DHT22;1661;53.572;10.174;2023-04-24T13:08:24;15.70;58.90
3298;DHT22;1661;53.572;10.174;2023-04-24T13:10:51;15.50;59.90
3298;DHT22;1661;53.572;10.174;2023-04-24T13:13:19;15.60;59.90
3298;DHT22;1661;53.572;10.174;2023-04-24T13:15:47;15.70;60.80
3298;DHT22;1661;53.572;10.174;2023-04-24T13:18:14;15.70;60.80
3298;DHT22;1661;53.572;10.174;2023-04-24T13:20:41;15.70;59.80
3298;DHT22;1661;53.572;10.174;2023-04-24T13:23:08;15.70;60.20
3298;DHT22;1661;53.572;10.174;2023-04-24T13:25:36;15.60;60.50
3298;DHT22;1661;53.572;10.174;2023-04-24T13:28:04;15.40;62.20
3298;DHT22;1661;53.572;10.174;2023-04-24T13:30:31;15.40;62.20
3298;DHT22;1661;53.572;10.174;2023-04-24T13:33:02;15.30;62.00
3298;DHT22;1661;53.572;10.174;2023-04-24T13:35:29;15.30;62.90
3298;DHT22;1661;53.572;10.174;2023-04-24T13:37:57;15.20;64.70
3298;DHT22;1661;53.572;10.174;2023-04-24T13:40:23;15.10;65.10
3298;DHT22;1661;53.572;10.174;2023-04-24T13:42:50;14.90;63.90
3298;DHT22;1661;53.572;10.174;2023-04-24T13:45:17;14.70;64.60
3298;DHT22;1661;53.572;10.174;2023-04-24T13:47:47;14.60;66.00
3298;DHT22;1661;53.572;10.174;2023-04-24T13:50:15;14.50;66.10
3298;DHT22;1661;53.572;10.174;2023-04-24T13:52:42;14.40;66.60
3298;DHT22;1661;53.572;10.174;2023-04-24T13:55:09;14.30;66.10
3298;DHT22;1661;53.572;10.174;2023-04-24T13:57:36;14.30;67.20
3298;DHT22;1661;53.572;10.174;2023-04-24T14:00:03;14.30;67.60
3298;DHT22;1661;53.572;10.174;2023-04-24T14:02:35;14.30;66.50
3298;DHT22;1661;53.572;10.174;2023-04-24T14:05:02;14.30;66.70
3298;DHT22;1661;53.572;10.174;2023-04-24T14:07:31;14.20;66.30
3298;DHT22;1661;53.572;10.174;2023-04-24T14:09:57;14.20;66.70
3298;DHT22;1661;53.572;10.174;2023-04-24T14:12:25;14.10;66.80
3298;DHT22;1661;53.572;10.174;2023-04-24T14:14:52;14.00;66.30
3298;DHT22;1661;53.572;10.174;2023-04-24T14:17:19;13.90;67.00
3298;DHT22;1661;53.572;10.174;2023-04-24T14:19:46;13.90;67.30
3298;DHT22;1661;53.572;10.174;2023-04-24T14:22:12;13.80;67.10
3298;DHT22;1661;53.572;10.174;2023-04-24T14:24:43;13.70;68.20
3298;DHT22;1661;53.572;10.174;2023-04-24T14:27:10;13.80;68.60
3298;DHT22;1661;53.572;10.174;2023-04-24T14:29:37;13.90;68.90
3298;DHT22;1661;53.572;10.174;2023-04-24T14:32:04;13.90;68.10
3298;DHT22;1661;53.572;10.174;2023-04-24T14:34:30;13.90;68.60
3298;DHT22;1661;53.572;10.174;2023-04-24T14:36:57;13.90;68.30
3298;DHT22;1661;53.572;10.174;2023-04-24T14:39:24;14.00;68.00
3298;DHT22;1661;53.572;10.174;2023-04-24T14:41:55;13.90;68.00
3298;DHT22;1661;53.572;10.174;2023-04-24T14:44:22;14.00;68.00
3298;DHT22;1661;53.572;10.174;2023-04-24T14:46:49;14.00;67.50
3298;DHT22;1661;53.572;10.174;2023-04-24T14:49:16;14.00;67.10
3298;DHT22;1661;53.572;10.174;2023-04-24T14:51:43;14.00;67.50
3298;DHT22;1661;53.572;10.174;2023-04-24T14:54:10;14.10;67.00
3298;DHT22;1661;53.572;10.174;2023-04-24T14:56:37;14.10;66.30
3298;DHT22;1661;53.572;10.174;2023-04-24T14:59:07;14.20;66.50
3298;DHT22;1661;53.572;10.174;2023-04-24T15:01:34;14.30;66.20
3298;DHT22;1661;53.572;10.174;2023-04-24T15:04:01;14.20;65.90
3298;DHT22;1661;53.572;10.174;2023-04-24T15:06:29;14.10;67.50
3298;DHT22;1661;53.572;10.174;2023-04-24T15:08:57;14.00;69.00
3298;DHT22;1661;53.572;10.174;2023-04-24T15:11:24;14.00;69.20
3298;DHT22;1661;53.572;10.174;2023-04-24T15:13:51;14.00;71.30
3298;DHT22;1661;53.572;10.174;2023-04-24T15:16:19;13.90;73.00
3298;DHT22;1661;53.572;10.174;2023-04-24T15:18:46;13.70;74.90
3298;DHT22;1661;53.572;10.174;2023-04-24T15:21:13;13.60;75.60
3298;DHT22;1661;53.572;10.174;2023-04-24T15:23:40;13.30;76.90
3298;DHT22;1661;53.572;10.174;2023-04-24T15:26:07;13.20;77.90
3298;DHT22;1661;53.572;10.174;2023-04-24T15:28:34;13.10;78.80
3298;DHT22;1661;53.572;10.174;2023-04-24T15:31:00;12.90;78.60
3298;DHT22;1661;53.572;10.174;2023-04-24T15:33:29;12.60;79.30
3298;DHT22;1661;53.572;10.174;2023-04-24T15:35:56;12.40;79.70
3298;DHT22;1661;53.572;10.174;2023-04-24T15:38:22;12.30;80.60
3298;DHT22;1661;53.572;10.174;2023-04-24T15:40:49;12.10;81.20
3298;DHT22;1661;53.572;10.174;2023-04-24T15:43:16;11.90;82.00
3298;DHT22;1661;53.572;10.174;2023-04-24T15:45:43;11.80;82.80
3298;DHT22;1661;53.572;10.174;2023-04-24T15:48:10;11.50;82.70
3298;DHT22;1661;53.572;10.174;2023-04-24T15:50:38;11.40;83.60